17 | 10 | 2019

Daten Vortag

Wetterdaten von 10m Höhe gemessen, Station2

Datum / Zeit Intervall min Luftfeuchte % Temperatur °C absolut Luftdruck hPa Wind m/s Windbö m/s Richtung Relative Luftdruck hPa Taupunkt °C Windchill °C Niederschlag mm
16-10-2019 00:08 5 98 11.7 1002.6 0.0 0.0 W 1005.8 11.4 11.7 0.0
16-10-2019 00:09 5 98 11.7 1002.6 0.0 0.0 W 1005.8 11.4 11.7 0.0
16-10-2019 00:17 5 98 11.4 1002.4 0.0 0.0 W 1005.6 11.1 11.4 0.0
16-10-2019 00:22 5 98 11.5 1002.5 0.0 0.0 W 1005.7 11.2 11.5 0.0
16-10-2019 00:27 5 98 11.5 1002.6 0.0 0.0 W 1005.8 11.2 11.5 0.0
16-10-2019 00:32 5 98 11.5 1002.4 0.0 0.0 W 1005.6 11.2 11.5 0.0
16-10-2019 00:37 5 98 11.6 1002.2 0.0 0.0 N 1005.4 11.3 11.6 0.0
16-10-2019 00:42 5 98 11.6 1002.2 0.0 2.5 N 1005.4 11.3 11.6 0.0
16-10-2019 00:47 5 98 11.6 1002.3 3.6 6.1 W 1005.5 11.3 11.6 0.0
16-10-2019 00:52 5 98 10.8 1002.3 5.0 11.2 W 1005.5 10.5 10.8 0.0
16-10-2019 00:57 5 98 10.4 1002.4 5.0 7.2 W 1005.6 10.1 10.4 0.0
16-10-2019 01:02 5 98 10.0 1002.2 2.5 3.6 NW 1005.4 9.7 10.0 0.0
16-10-2019 01:07 5 98 10.2 1002.2 0.0 2.5 W 1005.4 9.9 10.2 0.0
16-10-2019 01:12 5 98 10.5 1002.2 0.0 0.0 W 1005.4 10.2 10.5 0.0
16-10-2019 01:17 5 98 10.0 1002.2 2.5 3.6 W 1005.4 9.7 10.0 0.0
16-10-2019 01:22 5 98 9.8 1002.3 1.1 3.6 W 1005.5 9.5 9.8 0.0
16-10-2019 01:27 5 98 10.3 1002.4 2.5 6.1 W 1005.6 10.0 10.3 0.0
16-10-2019 01:32 5 98 10.6 1002.4 3.6 7.2 W 1005.6 10.3 10.6 0.0
16-10-2019 01:37 5 98 10.9 1002.2 2.5 5.0 W 1005.4 10.6 10.9 0.0
16-10-2019 01:42 5 98 10.9 1002.2 2.5 3.6 W 1005.4 10.6 10.9 0.0
16-10-2019 01:47 5 98 10.9 1002.1 6.1 8.6 NW 1005.3 10.6 10.9 0.0
16-10-2019 01:52 5 98 11.5 1002.1 2.5 5.0 NW 1005.3 11.2 11.5 0.0
16-10-2019 01:57 5 98 11.5 1001.9 1.1 2.5 NW 1005.1 11.2 11.5 0.0
16-10-2019 02:02 5 98 11.5 1002.0 1.1 2.5 N 1005.2 11.2 11.5 0.0
16-10-2019 02:07 5 98 11.5 1001.9 0.0 5.0 N 1005.1 11.2 11.5 0.0
16-10-2019 02:12 5 98 11.5 1001.9 1.1 3.6 W 1005.1 11.2 11.5 0.0
16-10-2019 02:17 5 98 11.2 1002.0 1.1 2.5 W 1005.2 10.9 11.2 0.0
16-10-2019 02:22 5 98 11.0 1002.1 1.1 2.5 W 1005.3 10.7 11.0 0.0
16-10-2019 02:27 5 98 11.3 1002.1 2.5 6.1 W 1005.3 11.0 11.3 0.0
16-10-2019 02:32 5 98 11.4 1001.9 1.1 2.5 W 1005.1 11.1 11.4 0.0
16-10-2019 02:37 5 98 11.3 1001.9 1.1 2.5 W 1005.1 11.0 11.3 0.0
16-10-2019 02:42 5 98 11.5 1001.9 1.1 2.5 W 1005.1 11.2 11.5 0.0
16-10-2019 02:47 5 98 11.4 1001.8 0.0 0.0 W 1005.0 11.1 11.4 0.0
16-10-2019 02:52 5 98 11.4 1001.8 0.0 0.0 W 1005.0 11.1 11.4 0.0
16-10-2019 02:57 5 98 11.4 1001.9 0.0 0.0 W 1005.1 11.1 11.4 0.0
16-10-2019 03:02 5 98 11.0 1001.9 0.0 0.0 W 1005.1 10.7 11.0 0.0
16-10-2019 03:07 5 98 11.0 1001.8 1.1 2.5 W 1005.0 10.7 11.0 0.0
16-10-2019 03:12 5 99 11.0 1001.8 3.6 6.1 W 1005.0 10.9 11.0 0.0
16-10-2019 03:17 5 99 12.1 1001.8 3.6 5.0 W 1005.0 12.0 12.1 0.0
16-10-2019 03:22 5 99 12.0 1001.9 3.6 8.6 W 1005.1 11.9 12.0 0.0
16-10-2019 03:27 5 99 12.0 1001.8 5.0 7.2 W 1005.0 11.9 12.0 0.0
16-10-2019 03:32 5 99 12.0 1001.8 3.6 6.1 W 1005.0 11.9 12.0 0.0
16-10-2019 03:37 5 99 11.6 1001.9 2.5 5.0 NW 1005.1 11.5 11.6 0.0
16-10-2019 03:42 5 99 11.5 1001.9 0.0 2.5 W 1005.1 11.4 11.5 0.0
16-10-2019 03:47 5 99 11.5 1001.6 2.5 5.0 W 1004.8 11.4 11.5 0.0
16-10-2019 03:52 5 99 11.8 1001.7 0.0 1.1 W 1004.9 11.7 11.8 0.0
16-10-2019 03:57 5 99 11.7 1001.7 0.0 0.0 W 1004.9 11.6 11.7 0.0
16-10-2019 04:02 5 99 11.6 1001.7 0.0 0.0 W 1004.9 11.5 11.6 0.0
16-10-2019 04:07 5 99 11.7 1001.8 0.0 0.0 W 1005.0 11.6 11.7 0.0
16-10-2019 04:12 5 99 11.9 1001.7 0.0 0.0 W 1004.9 11.8 11.9 0.0
16-10-2019 04:17 5 99 11.8 1001.7 1.1 2.5 W 1004.9 11.7 11.8 0.0
16-10-2019 04:22 5 99 12.0 1001.8 0.0 1.1 W 1005.0 11.9 12.0 0.0
16-10-2019 04:27 5 99 12.1 1001.5 0.0 0.0 W 1004.7 12.0 12.1 0.0
16-10-2019 04:32 5 99 12.1 1001.6 0.0 1.1 NW 1004.8 12.0 12.1 0.0
16-10-2019 04:37 5 99 12.1 1001.7 1.1 2.5 NW 1004.9 12.0 12.1 0.0
16-10-2019 04:42 5 99 12.0 1001.8 0.0 0.0 NW 1005.0 11.9 12.0 0.0
16-10-2019 04:47 5 99 11.8 1001.7 2.5 5.0 NW 1004.9 11.7 11.8 0.0
16-10-2019 04:52 5 99 11.7 1001.7 1.1 3.6 N 1004.9 11.6 11.7 0.0
16-10-2019 04:57 5 99 11.8 1001.8 6.1 11.2 W 1005.0 11.7 11.8 0.0
16-10-2019 05:02 5 99 12.0 1001.6 3.6 6.1 N 1004.8 11.9 12.0 0.0
16-10-2019 05:07 5 99 12.3 1001.6 2.5 6.1 N 1004.8 12.2 12.3 0.0
16-10-2019 05:12 5 99 12.6 1001.7 3.6 9.7 N 1004.9 12.5 12.6 0.0
16-10-2019 05:17 5 99 12.9 1001.7 2.5 6.1 N 1004.9 12.8 12.9 0.0
16-10-2019 05:22 5 99 13.0 1001.8 3.6 6.1 N 1005.0 12.9 13.0 0.0
16-10-2019 05:27 5 99 13.0 1001.8 2.5 6.1 NW 1005.0 12.9 13.0 0.0
16-10-2019 05:32 5 99 13.0 1001.6 8.6 11.2 NW 1004.8 12.9 11.3 0.0
16-10-2019 05:37 5 99 13.0 1001.7 8.6 14.8 NW 1004.9 12.9 11.3 0.0
16-10-2019 05:42 5 99 13.0 1001.7 9.7 18.4 N 1004.9 12.9 10.7 0.0
16-10-2019 05:47 5 99 13.0 1001.5 8.6 18.4 N 1004.7 12.9 11.3 0.0
16-10-2019 05:52 5 99 12.9 1001.5 9.7 19.4 N 1004.7 12.8 10.6 0.0
16-10-2019 05:57 5 99 12.7 1001.3 8.6 13.3 N 1004.5 12.6 10.9 0.0
16-10-2019 06:02 5 99 12.6 1001.4 11.2 15.8 N 1004.6 12.5 9.7 0.0
16-10-2019 06:07 5 99 12.4 1001.3 12.2 20.9 N 1004.5 12.3 9.0 0.0
16-10-2019 06:12 5 99 12.3 1001.4 13.3 20.9 N 1004.6 12.2 8.5 0.0
16-10-2019 06:17 5 99 12.3 1001.5 7.2 14.8 N 1004.7 12.2 11.3 0.0
16-10-2019 06:22 5 99 12.2 1001.4 6.1 14.8 N 1004.6 12.1 12.2 0.0
16-10-2019 06:27 5 99 12.2 1001.4 6.1 9.7 N 1004.6 12.1 12.2 0.0
16-10-2019 06:32 5 99 12.2 1001.5 5.0 8.6 N 1004.7 12.1 12.2 0.0
16-10-2019 06:37 5 99 12.2 1001.5 3.6 8.6 NW 1004.7 12.1 12.2 0.0
16-10-2019 06:42 5 99 12.2 1001.5 7.2 14.8 N 1004.7 12.1 11.2 0.0
16-10-2019 06:47 5 99 12.2 1001.3 12.2 17.3 N 1004.5 12.1 8.8 0.0
16-10-2019 06:52 5 99 12.2 1001.4 9.7 14.8 NW 1004.6 12.1 9.9 0.0
16-10-2019 06:57 5 99 12.2 1001.5 11.2 20.9 W 1004.7 12.1 9.2 0.0
16-10-2019 07:02 5 99 12.2 1001.4 8.6 15.8 NW 1004.6 12.1 10.4 0.0
16-10-2019 07:07 5 99 12.2 1001.4 8.6 13.3 N 1004.6 12.1 10.4 0.0
16-10-2019 07:12 5 99 12.2 1001.3 11.2 13.3 W 1004.5 12.1 9.2 0.0
16-10-2019 07:17 5 99 12.2 1001.4 9.7 13.3 W 1004.6 12.1 9.9 0.0
16-10-2019 07:22 5 99 12.2 1001.4 8.6 13.3 W 1004.6 12.1 10.4 0.0
16-10-2019 07:27 5 99 12.2 1001.5 9.7 14.8 W 1004.7 12.1 9.9 0.0
16-10-2019 07:32 5 99 12.3 1001.5 9.7 15.8 W 1004.7 12.2 10.0 0.0
16-10-2019 07:37 5 99 12.3 1001.6 11.2 20.9 W 1004.8 12.2 9.3 0.0
16-10-2019 07:42 5 99 12.3 1001.7 9.7 17.3 N 1004.9 12.2 10.0 0.0
16-10-2019 07:47 5 99 12.4 1001.5 14.8 20.9 W 1004.7 12.3 8.1 0.0
16-10-2019 07:52 5 99 12.4 1001.7 12.2 18.4 NW 1004.9 12.3 9.0 0.0
16-10-2019 07:57 5 99 12.4 1001.7 14.8 22.0 W 1004.9 12.3 8.1 0.0
16-10-2019 08:02 5 99 12.4 1001.8 14.8 22.0 W 1005.0 12.3 8.1 0.0
16-10-2019 08:07 5 99 12.5 1001.8 13.3 18.4 NW 1005.0 12.4 8.7 0.0
16-10-2019 08:12 5 99 12.5 1001.9 12.2 18.4 W 1005.1 12.4 9.1 0.0
16-10-2019 08:17 5 99 12.5 1002.0 12.2 17.3 W 1005.2 12.4 9.1 0.0
16-10-2019 08:22 5 99 12.5 1002.2 8.6 13.3 W 1005.4 12.4 10.7 0.0
16-10-2019 08:27 5 99 12.5 1002.4 11.2 15.8 W 1005.6 12.4 9.6 0.0
16-10-2019 08:32 5 99 12.5 1002.4 11.2 15.8 W 1005.6 12.4 9.6 0.0
16-10-2019 08:37 5 99 12.5 1002.4 17.3 22.0 W 1005.6 12.4 7.5 0.0
16-10-2019 08:42 5 99 12.5 1002.2 11.2 17.3 W 1005.4 12.4 9.6 0.0
16-10-2019 08:47 5 99 12.5 1002.4 13.3 22.0 W 1005.6 12.4 8.7 0.0
16-10-2019 08:52 5 99 12.5 1002.4 9.7 20.9 W 1005.6 12.4 10.2 0.0
16-10-2019 08:57 5 99 12.6 1002.5 8.6 18.4 W 1005.7 12.5 10.8 0.0
16-10-2019 09:02 5 99 12.6 1002.5 8.6 12.2 W 1005.7 12.5 10.8 0.0
16-10-2019 09:07 5 99 12.6 1002.6 8.6 12.2 W 1005.8 12.5 10.8 0.0
16-10-2019 09:12 5 99 12.6 1002.6 9.7 17.3 W 1005.8 12.5 10.3 0.0
16-10-2019 09:17 5 99 12.7 1002.7 8.6 12.2 W 1005.9 12.6 10.9 0.3
16-10-2019 09:22 5 99 12.7 1002.7 8.6 11.2 W 1005.9 12.6 10.9 0.3
16-10-2019 09:27 5 99 12.7 1002.7 6.1 8.6 W 1005.9 12.6 12.7 0.6
16-10-2019 09:32 5 99 12.8 1002.8 8.6 12.2 W 1006.0 12.7 11.0 0.9
16-10-2019 09:37 5 99 12.8 1002.5 8.6 13.3 W 1005.7 12.7 11.0 1.2
16-10-2019 09:42 5 99 12.8 1002.5 12.2 17.3 NW 1005.7 12.7 9.5 1.5
16-10-2019 09:47 5 99 12.8 1002.4 12.2 15.8 W 1005.6 12.7 9.5 1.5
16-10-2019 09:52 5 98 12.9 1002.4 7.2 17.3 NW 1005.6 12.6 11.9 1.8
16-10-2019 09:57 5 98 12.9 1002.5 6.1 9.7 NW 1005.7 12.6 12.9 1.8
16-10-2019 10:02 5 98 12.9 1002.4 7.2 15.8 NW 1005.6 12.6 11.9 1.8
16-10-2019 10:07 5 98 13.0 1002.6 3.6 7.2 W 1005.8 12.7 13.0 1.8
16-10-2019 10:12 5 98 13.0 1002.7 5.0 8.6 W 1005.9 12.7 13.0 1.8
16-10-2019 10:17 5 98 13.0 1002.7 5.0 7.2 W 1005.9 12.7 13.0 1.5
16-10-2019 10:22 5 98 13.0 1002.8 5.0 6.1 W 1006.0 12.7 13.0 1.8
16-10-2019 10:27 5 98 13.0 1002.6 7.2 11.2 W 1005.8 12.7 12.0 1.5
16-10-2019 10:32 5 98 13.1 1002.6 6.1 8.6 W 1005.8 12.8 13.1 1.2
16-10-2019 10:37 5 98 13.1 1002.5 9.7 13.3 W 1005.7 12.8 10.9 0.9
16-10-2019 10:42 5 98 13.2 1002.5 9.7 13.3 W 1005.7 12.9 11.0 0.9
16-10-2019 10:47 5 98 13.2 1002.5 9.7 13.3 W 1005.7 12.9 11.0 0.9
16-10-2019 10:52 5 98 13.3 1002.6 9.7 11.2 W 1005.8 13.0 11.1 0.9
16-10-2019 10:57 5 98 13.3 1002.6 9.7 13.3 W 1005.8 13.0 11.1 1.2
16-10-2019 11:02 5 97 13.4 1002.6 11.2 18.4 W 1005.8 12.9 10.6 1.5
16-10-2019 11:07 5 97 13.4 1002.9 14.8 20.9 W 1006.1 12.9 9.3 1.5
16-10-2019 11:12 5 97 13.4 1003.0 13.3 19.4 W 1006.2 12.9 9.8 1.5
16-10-2019 11:17 5 97 13.5 1003.0 11.2 13.3 W 1006.2 13.0 10.7 1.5
16-10-2019 11:22 5 97 13.5 1003.0 11.2 14.8 W 1006.2 13.0 10.7 1.5
16-10-2019 11:27 5 97 13.5 1003.0 11.2 18.4 W 1006.2 13.0 10.7 1.5
16-10-2019 11:32 5 97 13.5 1003.0 12.2 17.3 W 1006.2 13.0 10.3 1.8
16-10-2019 11:37 5 97 13.6 1003.1 12.2 20.9 W 1006.3 13.1 10.4 2.1
16-10-2019 11:42 5 96 13.6 1003.1 11.2 15.8 W 1006.3 13.0 10.8 1.8
16-10-2019 11:47 5 96 13.6 1002.9 9.7 13.3 W 1006.1 13.0 11.4 2.1
16-10-2019 11:52 5 96 13.7 1002.9 13.3 20.9 W 1006.1 13.1 10.1 1.8
16-10-2019 11:57 5 96 13.7 1003.1 13.3 18.4 W 1006.3 13.1 10.1 1.5
16-10-2019 12:02 5 96 13.8 1003.1 12.2 17.3 W 1006.3 13.2 10.6 1.2
16-10-2019 12:07 5 96 13.8 1003.1 13.3 17.3 W 1006.3 13.2 10.3 1.5
16-10-2019 12:12 5 96 13.8 1003.1 13.3 15.8 W 1006.3 13.2 10.3 1.5
16-10-2019 12:17 5 96 13.8 1003.0 12.2 17.3 W 1006.2 13.2 10.6 1.5
16-10-2019 12:22 5 96 13.8 1003.1 14.8 20.9 W 1006.3 13.2 9.8 1.2
16-10-2019 12:27 5 95 13.8 1003.1 15.8 22.0 W 1006.3 13.0 9.5 1.2
16-10-2019 12:32 5 95 13.8 1003.2 12.2 14.8 W 1006.4 13.0 10.6 0.9
16-10-2019 12:37 5 95 13.9 1003.0 13.3 17.3 W 1006.2 13.1 10.4 0.6
16-10-2019 12:40 5 95 13.9 1002.7 11.2 15.8 W 1005.9 13.1 11.2 0.6
16-10-2019 12:47 5 94 13.9 1003.0 17.3 23.4 W 1006.2 13.0 9.2 0.3
16-10-2019 12:52 5 94 13.9 1003.2 15.8 20.9 W 1006.4 13.0 9.6 0.3
16-10-2019 12:57 5 95 13.8 1003.3 13.3 18.4 W 1006.5 13.0 10.3 0.3
16-10-2019 13:02 5 95 13.8 1003.4 13.3 19.4 W 1006.6 13.0 10.3 0.3
16-10-2019 13:07 5 95 13.8 1003.5 13.3 19.4 W 1006.7 13.0 10.3 0.0
16-10-2019 13:12 5 95 13.9 1003.5 14.8 20.9 W 1006.7 13.1 9.9 0.0
16-10-2019 13:17 5 95 13.9 1003.5 12.2 18.4 W 1006.7 13.1 10.8 0.0
16-10-2019 13:22 5 95 13.8 1003.6 14.8 19.4 W 1006.8 13.0 9.8 0.0
16-10-2019 13:27 5 96 13.8 1003.6 12.2 17.3 W 1006.8 13.2 10.6 0.0
16-10-2019 13:32 5 97 13.7 1003.7 11.2 15.8 W 1006.9 13.2 10.9 0.0
16-10-2019 13:37 5 97 13.7 1003.7 9.7 12.2 W 1006.9 13.2 11.5 0.3
16-10-2019 13:42 5 97 13.6 1003.8 8.6 11.2 W 1007.0 13.1 11.9 0.3
16-10-2019 13:47 5 96 13.6 1003.7 11.2 14.8 W 1006.9 13.0 10.8 0.3
16-10-2019 13:52 5 96 13.7 1003.7 8.6 14.8 W 1006.9 13.1 12.0 0.3
16-10-2019 13:57 5 97 13.7 1003.9 11.2 13.3 W 1007.1 13.2 10.9 0.6
16-10-2019 14:02 5 97 13.7 1003.9 14.8 23.4 W 1007.1 13.2 9.7 0.9
16-10-2019 14:07 5 95 13.6 1004.0 20.9 27.0 W 1007.2 12.8 8.0 0.9
16-10-2019 14:12 5 95 13.6 1004.0 14.8 20.9 W 1007.2 12.8 9.6 1.2
16-10-2019 14:17 5 95 13.6 1004.0 14.8 22.0 W 1007.2 12.8 9.6 1.2
16-10-2019 14:22 5 94 13.6 1003.9 18.4 28.1 W 1007.1 12.7 8.6 1.2
16-10-2019 14:27 5 95 13.6 1004.1 18.4 23.4 W 1007.3 12.8 8.6 1.2
16-10-2019 14:32 5 --- --- 1004.1 --- --- --- 1007.3 --- --- 1.2
16-10-2019 14:37 5 96 13.5 1004.1 17.3 25.6 W 1007.3 12.9 8.7 1.5
16-10-2019 14:42 5 96 13.5 1004.1 15.8 23.4 W 1007.3 12.9 9.1 1.5
16-10-2019 14:47 5 95 13.5 1004.1 22.0 25.6 W 1007.3 12.7 7.6 1.8
16-10-2019 14:52 5 95 13.5 1004.1 14.8 22.0 W 1007.3 12.7 9.4 1.8
16-10-2019 14:57 5 95 13.5 1004.2 17.3 33.1 W 1007.4 12.7 8.7 1.8
16-10-2019 15:02 5 94 13.5 1004.2 20.9 29.5 W 1007.4 12.6 7.8 1.5
16-10-2019 15:07 5 93 13.5 1004.1 22.0 34.2 W 1007.3 12.4 7.6 1.5
16-10-2019 15:12 5 94 13.5 1004.1 19.4 31.7 W 1007.3 12.6 8.2 1.2
16-10-2019 15:17 5 94 13.5 1004.2 17.3 23.4 W 1007.4 12.6 8.7 1.5
16-10-2019 15:22 5 94 13.5 1004.3 14.8 24.5 W 1007.5 12.6 9.4 1.5
16-10-2019 15:27 5 94 13.5 1004.4 15.8 20.9 W 1007.6 12.6 9.1 1.8
16-10-2019 15:32 5 94 13.5 1004.4 20.9 28.1 W 1007.6 12.6 7.8 1.8
16-10-2019 15:37 5 94 13.4 1004.5 22.0 29.5 W 1007.7 12.5 7.5 1.5
16-10-2019 15:42 5 93 13.3 1004.6 30.6 42.8 W 1007.8 12.2 5.8 1.5
16-10-2019 15:47 5 94 13.1 1004.6 27.0 37.8 W 1007.8 12.2 6.1 1.5
16-10-2019 15:52 5 94 13.0 1004.7 23.4 30.6 W 1007.9 12.1 6.6 1.5
16-10-2019 15:57 5 94 12.8 1004.7 24.5 31.7 W 1007.9 11.9 6.2 1.2
16-10-2019 16:02 5 94 12.7 1004.6 22.0 34.2 W 1007.8 11.8 6.5 1.5
16-10-2019 16:07 5 94 12.7 1004.8 29.5 40.3 W 1008.0 11.8 5.2 1.5
16-10-2019 16:12 5 94 12.6 1004.7 25.6 33.1 W 1007.9 11.7 5.7 1.5
16-10-2019 16:17 5 94 12.6 1004.9 19.4 25.6 W 1008.1 11.7 7.0 1.2
16-10-2019 16:22 5 93 12.5 1004.8 22.0 28.1 W 1008.0 11.4 6.3 1.2
16-10-2019 16:27 5 94 12.5 1004.8 19.4 24.5 W 1008.0 11.6 6.9 1.2
16-10-2019 16:32 5 93 12.5 1004.8 19.4 30.6 W 1008.0 11.4 6.9 1.2
16-10-2019 16:37 5 93 12.5 1004.9 18.4 24.5 W 1008.1 11.4 7.2 0.9
16-10-2019 16:42 5 93 12.5 1005.0 20.9 34.2 W 1008.2 11.4 6.5 0.9
16-10-2019 16:47 5 93 12.5 1005.0 17.3 27.0 W 1008.2 11.4 7.5 0.9
16-10-2019 16:52 5 94 12.5 1005.0 18.4 28.1 W 1008.2 11.6 7.2 0.9
16-10-2019 16:57 5 94 12.4 1005.1 15.8 20.9 W 1008.3 11.5 7.8 0.9
16-10-2019 17:02 5 94 12.5 1004.9 15.8 22.0 SW 1008.1 11.6 7.9 0.6
16-10-2019 17:07 5 94 12.5 1005.0 19.4 29.5 W 1008.2 11.6 6.9 0.6
16-10-2019 17:12 5 93 12.5 1005.1 17.3 28.1 W 1008.3 11.4 7.5 0.6
16-10-2019 17:17 5 94 12.6 1005.2 13.3 20.9 W 1008.4 11.7 8.8 0.6
16-10-2019 17:22 5 94 12.6 1005.2 8.6 14.8 W 1008.4 11.7 10.8 0.6
16-10-2019 17:27 5 94 12.7 1005.2 11.2 15.8 W 1008.4 11.8 9.8 0.3
16-10-2019 17:32 5 94 12.7 1005.1 12.2 19.4 W 1008.3 11.8 9.4 0.3
16-10-2019 17:37 5 94 12.7 1005.1 13.3 18.4 W 1008.3 11.8 9.0 0.3
16-10-2019 17:42 5 94 12.8 1005.2 11.2 17.3 W 1008.4 11.9 9.9 0.3
16-10-2019 17:47 5 94 12.9 1005.4 8.6 15.8 W 1008.6 12.0 11.2 0.0
16-10-2019 17:52 5 94 12.9 1005.3 7.2 13.3 W 1008.5 12.0 11.9 0.0
16-10-2019 17:57 5 94 12.9 1005.4 11.2 17.3 W 1008.6 12.0 10.0 0.0
16-10-2019 18:02 5 94 13.0 1005.3 7.2 11.2 W 1008.5 12.1 12.0 0.0
16-10-2019 18:07 5 94 12.9 1005.4 8.6 13.3 SW 1008.6 12.0 11.2 0.0
16-10-2019 18:12 5 94 13.0 1005.3 12.2 17.3 W 1008.5 12.1 9.7 0.0
16-10-2019 18:17 5 94 13.0 1005.3 6.1 9.7 W 1008.5 12.1 13.0 0.0
16-10-2019 18:22 5 94 13.0 1005.5 7.2 12.2 W 1008.7 12.1 12.0 0.0
16-10-2019 18:27 5 94 13.0 1005.5 11.2 19.4 W 1008.7 12.1 10.1 0.0
16-10-2019 18:32 5 94 13.0 1005.6 7.2 11.2 W 1008.8 12.1 12.0 0.0
16-10-2019 18:37 5 94 13.0 1005.6 8.6 14.8 SW 1008.8 12.1 11.3 0.0
16-10-2019 18:42 5 94 12.9 1005.6 8.6 13.3 SW 1008.8 12.0 11.2 0.0
16-10-2019 18:47 5 94 12.9 1005.8 7.2 13.3 SW 1009.0 12.0 11.9 0.0
16-10-2019 18:52 5 95 12.8 1005.8 7.2 12.2 W 1009.0 12.0 11.8 0.0
16-10-2019 18:57 5 95 12.8 1005.8 7.2 12.2 W 1009.0 12.0 11.8 0.0
16-10-2019 19:02 5 95 12.7 1005.9 8.6 12.2 W 1009.1 11.9 10.9 0.0
16-10-2019 19:07 5 95 12.7 1005.9 7.2 13.3 SW 1009.1 11.9 11.7 0.0
16-10-2019 19:12 5 95 12.6 1005.8 6.1 9.7 SW 1009.0 11.8 12.6 0.0
16-10-2019 19:17 5 95 12.6 1005.9 5.0 9.7 W 1009.1 11.8 12.6 0.0
16-10-2019 19:22 5 95 12.5 1005.8 9.7 15.8 SW 1009.0 11.7 10.2 0.0
16-10-2019 19:27 5 95 12.5 1005.9 8.6 15.8 SW 1009.1 11.7 10.7 0.0
16-10-2019 19:32 5 95 12.5 1006.0 8.6 14.8 SW 1009.2 11.7 10.7 0.0
16-10-2019 19:37 5 95 12.5 1005.9 12.2 14.8 S 1009.1 11.7 9.1 0.0
16-10-2019 19:42 5 95 12.5 1006.0 9.7 14.8 SW 1009.2 11.7 10.2 0.0
16-10-2019 19:47 5 94 12.6 1006.0 15.8 19.4 SW 1009.2 11.7 8.0 0.0
16-10-2019 19:52 5 94 12.6 1006.1 9.7 19.4 W 1009.3 11.7 10.3 0.0
16-10-2019 19:57 5 93 12.6 1006.2 11.2 20.9 W 1009.4 11.5 9.7 0.0
16-10-2019 20:02 5 93 12.6 1006.3 13.3 20.9 W 1009.5 11.5 8.8 0.0
16-10-2019 20:07 5 92 12.5 1006.2 9.7 14.8 SW 1009.4 11.3 10.2 0.0
16-10-2019 20:12 5 92 12.5 1006.2 9.7 15.8 W 1009.4 11.3 10.2 0.0
16-10-2019 20:17 5 92 12.6 1006.3 13.3 19.4 SW 1009.5 11.4 8.8 0.0
16-10-2019 20:22 5 92 12.5 1006.3 12.2 18.4 SW 1009.5 11.3 9.1 0.0
16-10-2019 20:27 5 92 12.5 1006.2 12.2 18.4 SW 1009.4 11.3 9.1 0.0
16-10-2019 20:32 5 92 12.4 1006.2 12.2 19.4 SW 1009.4 11.2 9.0 0.0
16-10-2019 20:37 5 92 12.4 1006.3 12.2 18.4 SW 1009.5 11.2 9.0 0.0
16-10-2019 20:42 5 92 12.4 1006.2 12.2 18.4 SW 1009.4 11.2 9.0 0.0
16-10-2019 20:47 5 91 12.3 1006.3 13.3 17.3 SW 1009.5 10.9 8.5 0.0
16-10-2019 20:52 5 92 12.3 1006.3 12.2 18.4 SW 1009.5 11.1 8.9 0.0
16-10-2019 20:57 5 92 12.2 1006.3 8.6 12.2 W 1009.5 11.0 10.4 0.0
16-10-2019 21:02 5 92 12.0 1006.6 12.2 15.8 SW 1009.8 10.8 8.5 0.0
16-10-2019 21:07 5 92 12.0 1006.4 9.7 14.8 SW 1009.6 10.8 9.6 0.0
16-10-2019 21:12 5 92 11.9 1006.4 12.2 19.4 SW 1009.6 10.7 8.4 0.0
16-10-2019 21:17 5 92 11.9 1006.5 7.2 9.7 SW 1009.7 10.7 10.9 0.0
16-10-2019 21:22 5 93 11.9 1006.5 6.1 8.6 SW 1009.7 10.8 11.9 0.0
16-10-2019 21:27 5 92 11.8 1006.5 7.2 12.2 W 1009.7 10.6 10.8 0.0
16-10-2019 21:32 5 92 11.7 1006.4 6.1 11.2 SW 1009.6 10.5 11.7 0.0
16-10-2019 21:37 5 93 11.7 1006.4 3.6 6.1 SW 1009.6 10.6 11.7 0.0
16-10-2019 21:42 5 93 11.6 1006.5 2.5 5.0 SW 1009.7 10.5 11.6 0.0
16-10-2019 21:47 5 93 11.5 1006.6 5.0 8.6 S 1009.8 10.4 11.5 0.0
16-10-2019 21:52 5 92 11.5 1006.6 7.2 11.2 S 1009.8 10.3 10.4 0.0
16-10-2019 21:57 5 92 11.5 1006.5 6.1 9.7 SW 1009.7 10.3 11.5 0.0
16-10-2019 22:02 5 92 11.6 1006.6 3.6 6.1 SW 1009.8 10.4 11.6 0.0
16-10-2019 22:07 5 93 11.5 1006.7 2.5 5.0 W 1009.9 10.4 11.5 0.0
16-10-2019 22:12 5 92 11.5 1006.8 3.6 6.1 W 1010.0 10.3 11.5 0.0
16-10-2019 22:17 5 93 11.5 1006.8 2.5 5.0 S 1010.0 10.4 11.5 0.0
16-10-2019 22:22 5 93 11.3 1006.8 3.6 6.1 S 1010.0 10.2 11.3 0.0
16-10-2019 22:27 5 94 11.2 1006.8 0.0 2.5 S 1010.0 10.3 11.2 0.0
16-10-2019 22:32 5 94 11.0 1006.7 1.1 2.5 S 1009.9 10.1 11.0 0.0
16-10-2019 22:37 5 94 10.9 1006.9 2.5 3.6 S 1010.1 10.0 10.9 0.0
16-10-2019 22:42 5 94 10.9 1006.9 5.0 8.6 S 1010.1 10.0 10.9 0.0
16-10-2019 22:47 5 95 10.7 1006.9 5.0 7.2 SE 1010.1 9.9 10.7 0.0
16-10-2019 22:52 5 95 10.4 1006.9 2.5 7.2 SE 1010.1 9.6 10.4 0.0
16-10-2019 22:57 5 95 10.3 1006.9 7.2 11.2 SE 1010.1 9.5 9.2 0.0
16-10-2019 23:02 5 95 10.3 1006.8 7.2 9.7 SE 1010.0 9.5 9.2 0.0
16-10-2019 23:07 5 95 10.2 1006.9 3.6 7.2 SE 1010.1 9.4 10.2 0.0
16-10-2019 23:12 5 95 10.2 1006.7 6.1 9.7 SE 1009.9 9.4 10.2 0.0
16-10-2019 23:17 5 94 10.2 1006.7 7.2 12.2 SE 1009.9 9.3 9.1 0.0
16-10-2019 23:22 5 95 10.3 1006.8 6.1 9.7 S 1010.0 9.5 10.3 0.0
16-10-2019 23:27 5 95 10.2 1006.8 5.0 8.6 SE 1010.0 9.4 10.2 0.0
16-10-2019 23:32 5 96 10.1 1006.7 5.0 7.2 SE 1009.9 9.5 10.1 0.0
16-10-2019 23:37 5 96 10.0 1006.7 6.1 8.6 SE 1009.9 9.4 10.0 0.0
16-10-2019 23:42 5 95 10.1 1006.7 8.6 12.2 SE 1009.9 9.3 8.1 0.0
16-10-2019 23:47 5 95 10.2 1006.6 7.2 9.7 SE 1009.8 9.4 9.1 0.0
16-10-2019 23:52 5 95 10.2 1006.7 6.1 9.7 S 1009.9 9.4 10.2 0.0
16-10-2019 23:57 5 96 10.1 1006.7 6.1 9.7 SE 1009.9 9.5 10.1 0.0

                                                                             Tabelle: 08 : 00 UHR

STATIONHÖHELUFTD.TEMP.T-MinT-MaxU%RR1RR12SSSDDFFFXWetter+WolkenBöen
UFS TW Ems 0 ------ --- --- --- --- ---- --- --- -- --- --- --- ---
UFS Deutsche Bucht 0 ------ --- --- --- --- ---- --- --- -- --- --- --- ---
Helgoland 4 1006.3 13.6 13.3 15.4 89 0.7 21 0 -- --- --- leichter Regen ---
List/Sylt 26 1005.7 12.5 12.5 14.1 96 3.1 16 0 NO 6 8 leichter Regen ---
Schleswig 43 1005.9 12.8 12.3 13.8 99 2.3 11 0 W 6 9 leichter Regen ---
Leuchtturm Kiel 5 1005.8 13.1 13.1 16.0 98 ---- --- --- W 17 21 --- ---
Kiel 27 1005.7 12.9 11.3 15.5 99 3.1 7 0 W 6 12 leichter Regen ---
Fehmarn 3 1005.5 13.3 12.9 14.1 97 0.0 0 0 W 18 22 Dunst oder flacher Nebel ---
Arkona 42 1003.9 11.5 11.2 14.6 100 0.0 0 0 NO 18 26 Nebel ---
Norderney 11 1006.7 12.8 12.7 14.6 96 0.1 10 --- -- --- --- Niederschlag ---
Leuchtt. Alte Weser 32 1006.2 12.9 12.7 15.9 100 ---- --- --- W 25 --- --- ---
Cuxhaven 5 1006.4 13.1 13.0 15.4 99 0.2 26 0 W 12 21 Regen ---
Hamburg-Flh. 11 1006.3 13.5 12.7 14.5 96 2.2 21 0 W 10 17 leichter Regen ---
Schwerin 59 1005.2 13.3 12.2 15.5 96 3.5 4 0 NW 14 26 Regen ---
Rostock 4 1004.2 12.7 12.2 15.0 99 0.0 0 0 N 17 22 Nebel ---
Greifswald 2 1003.7 10.4 8.8 12.0 100 0.0 0 0 W 6 9 Nebel ---
Emden 0 1007.0 12.6 12.6 14.9 96 0.7 --- 0 SW 9 23 leichter Regen ---
Bremen-Flh. 5 1007.6 13.0 12.7 16.1 99 0.1 24 0 SW 9 18 leichter Regen ---
Lüchow 17 1006.4 13.6 10.5 15.4 96 3.8 9 0 W 12 18 leichter Regen ---
Marnitz 81 1004.6 13.4 10.9 14.6 97 0.9 1 0 NW 13 21 kräftiger Regen ---
Waren 70 1003.8 12.2 10.5 15.3 100 0.0 0 0 NW 5 13 Nebel ---
Neuruppin 38 1004.6 12.1 9.8 14.5 99 0.0 0 0 SW 11 18 --- ---
Angermünde 56 1004.1 9.3 7.6 14.0 99 0.0 0 0 S 11 20 Nebel ---
Münster/Osnabr.-Flh. 48 1009.2 12.2 12.2 15.2 89 0.0 12 0 SW 19 26 Regen ---
Hannover-Flh. 59 1008.4 11.8 11.7 16.6 97 0.7 42 0 W 26 42 leichter Regen ---
Magdeburg 76 1007.5 13.9 12.3 17.7 90 1.2 4 0 W 15 32 leichter Regen ---
Potsdam 81 1005.7 14.0 10.8 16.1 95 0.0 0 0 W 28 42 leichter Regen ---
Berlin-Tegel 37 1005.1 13.9 9.3 16.0 96 0.0 0 0 W 23 29 Dunst oder flacher Nebel ---
Berlin-Tempelhof 48 1005.2 13.6 10.1 15.9 96 0.0 0 --- W 12 20 --- ---
Berlin-Dahlem 51 1005.1 13.9 9.2 14.2 --- ---- 0 0 W 25 --- bedeckt ---
Lindenberg 91 1005.6 12.7 10.3 16.4 97 0.0 0 0 SW 18 30 Nebel ---
Düsseldorf-Flh. 45 1010.3 11.7 11.0 13.5 92 0.2 5 0 S 13 27 Regenschauer ---
Essen 150 1010.3 10.6 10.5 12.8 97 0.5 6 0 SW 12 21 Regen ---
Kahler Asten 839 ------ 6.6 6.4 11.8 98 0.0 22 0 SW 24 42 Regen ---
Bad Lippspringe 157 1010.1 11.4 11.4 16.1 95 1.2 25 0 SW 11 17 leichter Regen ---
Fritzlar 174 1011.2 11.3 10.8 18.4 90 ---- 12 0 SW 14 --- Regen ---
Brocken 1142 ------ 4.7 4.6 12.4 100 ---- 8 0 W 54 74 leichter Regen Sturmböen
Leipzig-Flh. 142 1008.9 12.2 12.2 15.7 91 1.3 6 0 SW 37 49 leichter Regen ---
Dresden-Flh. 227 1009.2 12.9 11.7 15.5 90 2.3 2 0 SW 24 35 Regen ---
Cottbus 69 1006.5 15.1 9.7 15.6 91 0.0 0 0 SW 18 35 --- ---
Görlitz 238 1008.1 14.1 11.4 15.6 83 0.0 0 0 SW 20 32 --- ---
Aachen 231 1010.3 10.1 10.1 12.2 86 0.0 3 0 S 23 40 --- ---
Nürburg 485 1012.1 8.0 7.9 11.4 94 0.0 3 --- SW 15 31   ---
Köln/Bonn-Flh. 92 1011.4 11.2 11.1 14.1 92 0.0 10 0 S 9 17 stark bewölkt ---
Gießen/Wettenberg 203 1012.5 10.9 10.7 14.1 93 0.0 10 0 S 12 17 leichter Regen ---
Wasserkuppe 921 ------ 6.4 6.4 12.9 100 0.1 15 0 SW 40 53 Nebel Windböen
Meiningen 450 1012.8 9.5 9.4 16.0 96 0.1 14 0 S 10 19 Regen ---
Erfurt 316 1011.3 10.5 10.3 18.0 89 0.4 2 0 SW 22 45 leichter Regen ---
Gera 311 1011.1 11.3 11.2 15.0 87 0.0 1 0 W 22 50 --- Windböen
Fichtelberg 1213 ------ 5.4 5.4 13.9 97 ---- --- 0 W 49 68 Regen Sturmböen
Trier 265 1013.2 10.4 10.2 12.5 89 0.0 2 0 S 20 35 --- ---
Hahn-Flh. 497 1013.4 8.2 8.2 11.2 90 0.0 1 0 SW 11 30 --- ---
Frankfurt/M-Flh. 112 1013.6 11.3 11.2 14.5 89 0.0 1 0 S 17 27 bewölkt ---
OF-Wetterpark 119 1013.6 11.4 11.4 14.6 89 0.0 4 0 SW 10 23 --- ---
Würzburg 268 1014.7 10.5 10.4 16.8 88 0.0 4 0 W 15 28 --- ---
Bamberg 239 1014.4 11.5 11.4 16.8 83 0.0 3 0 SW 12 22 --- ---
Hof 567 1012.5 9.2 9.0 12.6 87 0.0 0 0 -- --- ---   ---
Weiden 438 1014.6 9.8 9.8 12.7 91 0.0 3 0 SW 13 26 Regen ---
Saarbrücken-Flh. 320 1014.8 9.3 9.3 12.4 93 0.2 8 0 SW 18 28 Regen ---
Karlsruhe-Rheinst. 116 1015.3 11.0 11.0 13.9 84 0.0 3 0 SW 17 32 --- ---
Mannheim 96 1014.9 11.3 11.3 14.5 89 0.0 3 0 S 13 24 --- ---
Stuttgart-Flh. 371 1016.4 9.0 8.8 12.7 87 0.0 7 0 S 9 22 bewölkt ---
Öhringen 276 1015.4 10.6 10.6 13.5 86 0.1 5 0 SW 13 24 leichter Regen ---
Nürnberg-Flh. 314 1015.1 11.1 11.0 16.4 82 0.0 6 0 SW 14 24 bewölkt ---
Regensburg 366 1015.9 10.0 9.8 13.2 92 0.0 5 0 SW 13 26 --- ---
Straubing 351 1016.2 10.7 9.7 13.7 88 0.0 4 0 SW 17 24 --- ---
Großer Arber 1436 ------ 3.5 3.4 13.5 100 0.3 16 0 W 43 71 Niederschlag Sturmböen
Lahr 155 1016.3 11.0 10.5 13.2 79 0.0 4 0 S 16 26 --- ---
Freudenstadt 797 ------ 6.5 6.3 9.7 96 0.0 6 0 W 24 44 --- ---
Stötten 734 1016.7 7.1 5.9 11.0 91 0.0 6 0 SW 21 31 --- ---
Augsburg 462 1016.9 9.5 8.7 14.8 84 0.0 0 --- W 18 29 --- ---
München-Flh. 444 1017.3 9.4 9.3 15.7 85 0.0 4 0 SW 17 31 stark bewölkt ---
Fürstenzell 476 1016.8 9.8 9.7 12.0 93 0.0 3 0 SW 14 25 --- ---
Feldberg/Schw. 1486 ------ 1.9 1.7 4.4 99 0.1 7 0 SW 40 54 Nebel Windböen
Konstanz 443 1018.5 8.0 8.0 12.0 89 0.0 3 0 W 6 17 wolkenlos ---
Kempten 705 1019.3 5.2 5.2 11.9 97 0.0 3 0 S 3 8 wolkenlos ---
Oberstdorf 806 ------ 6.6 6.4 12.5 98 0.0 5 0 S 6 9 --- ---
Zugspitze 2960 ------ -7.3 -7.3 0.8 88 ---- --- 30 SW 27 50 Schneefall Windböen
Hohenpeißenberg 977 ------ 5.8 5.5 11.4 90 0.0 1 0 SW 24 42 --- ---

                                                                                           Tabelle: 20 : 00 UHR  

STATIONHÖHELUFTD.TEMP.T-MinT-MaxU%RR1RR12SSSDDFFFXWetter+WolkenBöen
UFS TW Ems 0 ------ --- --- --- --- ---- --- --- -- --- --- --- ---
UFS Deutsche Bucht 26 ------ --- --- --- --- ---- --- --- -- --- --- --- ---
Helgoland 4 1006.4 14.5 12.9 14.6 80 0.0 0 0 -- --- ---   ---
List/Sylt 26 1006.8 12.2 11.9 14.7 88 0.0 6 0 S 20 31 wolkenlos ---
Schleswig 43 1008.2 11.3 11.3 14.3 95 0.0 3 0 SW 9 14 --- ---
Leuchtturm Kiel 5 1008.0 13.1 13.0 14.1 86 ---- --- --- SW 33 39 --- ---
Kiel 27 1008.2 12.1 12.1 14.4 92 0.0 2 0 SW 10 18 --- ---
Fehmarn 3 1008.1 13.0 12.8 13.4 94 0.0 10 0 SW 15 23 --- ---
Arkona 42 1006.9 12.6 11.0 12.6 99 1.2 5 0 W 32 42 leichter Regen ---
Norderney 11 1005.9 13.6 12.1 15.2 89 0.0 0 0 S 20 32 --- ---
Leuchtt. Alte Weser 32 1006.7 14.1 12.7 14.2 84 ---- --- --- S 32 --- --- ---
Cuxhaven 5 1007.6 12.9 11.7 14.8 87 0.0 3 0 SO 9 17 --- ---
Hamburg-Flh 11 1009.0 10.9 10.5 14.7 94 0.0 2 0 SO 8 15 Dunst oder flacher Nebel ---
Schwerin 59 1009.4 11.6 11.6 13.6 92 0.0 13 0 SW 17 26 --- ---
Rostock 4 1008.5 13.2 12.5 13.4 92 0.0 9 0 SW 11 26 --- ---
Greifswald 2 1008.1 12.8 10.4 13.4 94 0.3 8 0 W 20 35 leichter Regen ---
Emden 0 1006.4 13.1 12.3 15.3 95 0.0 0 0 S 21 33 --- ---
Bremen-Flh. 5 1008.4 14.5 12.6 16.0 81 0.0 1 0 S 15 22 Regen ---
Lüchow 17 1010.3 10.2 9.8 14.6 96 0.0 7 0 S 4 6 wolkenlos ---
Marnitz 81 1010.0 11.3 11.2 13.4 90 0.0 11 0 W 13 25 wolkenlos ---
Waren 70 1009.4 12.2 12.2 13.4 94 0.0 12 0 SW 12 21 --- ---
Neuruppin 38 1010.8 10.8 10.8 13.7 98 0.0 13 0 SW 4 15 --- ---
Angermünde 56 1010.2 12.0 9.4 14.2 91 0.5 9 0 SW 18 35 Regen ---
Münster/Osnabr.-Flh. 48 1008.6 13.1 11.7 16.3 98 0.1 0 0 S 12 21 leichter Regen ---
Hannover-Flh. 59 1009.8 13.5 11.7 16.3 84 0.0 1 0 S 14 28 stark bewölkt ---
Magdeburg 76 1011.1 13.7 11.8 15.6 77 0.0 7 0 S 12 19 --- ---
Potsdam 81 1011.4 10.6 10.6 14.1 98 0.0 5 0 S 18 30 gering bewölkt ---
Berlin-Tegel 37 1011.2 11.7 11.5 14.2 93 0.0 7 0 SW 10 21 gering bewölkt ---
Berlin-Tempelhof 48 1011.5 11.7 11.6 14.5 93 0.0 7 --- S 8 15 --- ---
Berlin-Dahlem 51 1011.5 10.9 10.9 14.2 --- ---- 6 0 SW 14 --- gering bewölkt ---
Lindenberg 91 1012.0 11.5 11.3 14.1 89 0.0 3 0 SW 14 21 gering bewölkt ---
Düsseldorf-Flh. 45 1009.2 13.5 11.7 16.0 98 0.7 2 0 S 20 28 Regen ---
Essen 150 1009.2 12.6 10.6 14.6 100 0.7 2 0 S 14 27 Regen ---
Kahler Asten 839 ------ 8.6 6.4 8.6 99 0.2 2 0 SW 35 54 Nebel Windböen
Bad Lippspringe 157 1010.1 14.0 11.2 15.6 79 0.0 0 0 S 12 18 --- ---
Fritzlar 174 1012.0 12.2 11.3 14.9 92 ---- 0 0 S 18 --- leichter Regen ---
Brocken 1142 ------ 6.1 4.1 6.1 100 ---- 7 0 SW 56 74 leichter Regen Sturmböen
Leipzig-Flh. 142 1012.5 14.1 11.1 16.0 71 0.0 3 0 SW 21 34 stark bewölkt ---
Dresden-Flh. 227 1013.7 13.2 12.0 15.0 66 0.0 1 0 SW 11 22 stark bewölkt ---
Cottbus 69 1012.5 11.7 11.5 15.1 87 0.0 1 0 SW 8 15 --- ---
Görlitz 238 1013.9 12.1 10.9 15.0 71 0.0 1 0 SW 17 24 --- ---
Aachen 231 1008.9 13.2 9.7 13.9 87 0.2 1 0 S 30 46 Regen ---
Nürburg 485 1011.1 11.3 7.8 12.1 95 0.0 2 --- SW 16 30 leichter Regen ---
Köln/Bonn-Flh. 92 1010.5 13.4 10.9 15.1 94 1.3 2 0 SO 11 23 Regen ---
Gießen/Wettenberg 203 1012.1 12.7 10.6 14.7 91 0.0 0 0 SO 10 18 --- ---
Wasserkuppe 921 ------ 7.9 6.1 8.0 99 0.0 1 --- S 41 51 Regen Windböen
Meiningen 450 1013.6 11.1 9.5 12.7 87 0.1 1 0 S 14 27 leichter Regen ---
Erfurt 316 1012.9 11.9 10.5 14.6 86 0.0 0 0 SW 22 35 leichter Regen ---
Gera 311 1013.4 12.6 10.8 14.7 76 0.0 0 0 SW 23 35 --- ---
Fichtelberg 1213 ------ 5.2 4.5 7.1 97 ---- --- 0 SW 44 61 Nebel Windböen
Trier 265 1011.6 14.7 10.3 16.2 71 0.0 3 0 SW 12 27 --- ---
Hahn-Flh. 497 1011.6 12.5 8.2 13.8 76 0.0 1 0 SW 21 36 --- ---
Frankfurt/M-Flh. 112 1012.3 14.3 11.2 14.4 80 0.0 1 0 S 10 17 Regen ---
OF-Wetterpark 119 1012.4 13.6 11.3 14.0 86 0.0 1 0 SO 8 12 --- ---
Würzburg 268 1014.3 13.6 10.5 15.3 77 0.0 0 0 S 18 23 --- ---
Bamberg 239 1014.6 13.7 11.4 15.1 73 ---- --- 0 SO 8 17 Regen ---
Hof 567 1014.5 10.9 9.2 12.8 79 0.0 0 0 -- --- ---   ---
Weiden 438 1015.6 12.5 9.8 15.2 68 0.0 0 0 S 6 18 --- ---
Saarbrücken-Flh. 320 1012.7 13.6 9.2 16.6 67 0.0 3 0 SW 15 23 bewölkt ---
Karlsruhe-Rheinst. 116 1013.4 12.5 11.0 18.6 78 0.0 0 0 SO 8 11 wolkenlos ---
Mannheim 96 1013.0 15.2 11.3 18.0 69 0.0 0 0 S 8 13 --- ---
Stuttgart-Flh. 371 1014.8 12.5 9.0 17.0 76 0.0 0 0 S 4 11 gering bewölkt ---
Öhringen 276 1014.3 12.7 10.6 17.8 80 0.0 0 0 SO 6 12 wolkenlos ---
Nürnberg-Flh. 314 1014.8 13.4 11.0 15.6 71 0.0 0 0 SO 12 15 stark bewölkt ---
Regensburg 366 1016.6 10.8 9.9 18.1 78 0.0 0 0 SO 4 12 wolkenlos ---
Straubing 351 1017.2 8.8 8.2 16.7 90 0.0 0 0 S 8 9 wolkenlos ---
Großer Arber 1436 ------ 4.1 3.0 5.4 86 0.0 0 0 S 16 29 --- ---
Lahr 155 1014.0 13.1 11.0 19.1 72 0.0 0 0 S 10 14 --- ---
Freudenstadt 797 ------ 9.9 6.4 13.9 73 0.0 0 0 S 10 19 wolkenlos ---
Stötten 734 1015.4 10.3 7.0 13.7 75 0.0 0 0 S 8 19 wolkenlos ---
Augsburg 462 1016.7 7.7 7.6 16.1 90 0.0 0 --- SO 4 9 wolkenlos ---
München-Flh. 444 1016.7 10.7 8.4 16.2 74 0.0 0 0 O 10 17 wolkenlos ---
Fürstenzell 476 1016.9 13.2 9.7 15.6 57 0.0 0 0 SO 8 12 wolkenlos ---
Feldberg/Schw. 1486 ------ 7.2 1.9 8.2 71 0.0 0 0 SW 33 41 wolkenlos ---
Konstanz 443 1015.9 11.0 7.4 17.1 77 0.0 0 0 SO 2 9 wolkenlos ---
Kempten 705 1016.9 7.8 5.1 17.0 85 0.0 0 0 O 2 10 wolkenlos ---
Oberstdorf 806 ------ 5.9 5.7 16.0 97 0.0 0 0 S 4 18 wolkenlos ---
Zugspitze 2960 ------ -0.6 -7.7 0.0 64 ---- --- --- SW 31 41 wolkenlos ---
Hohenpeißenberg 977 ------ 10.2 5.7 15.3 71 0.0 0 0 SO 15 21 wolkenlos ---

 

  • Wetterzustand
  • Windrichtung und -geschwindigkeit
  • Luftdruck
  • relative Luftfeuchtigkeit
  • Sichtweite
  • Gesamtbedeckungsgrad
  • Niederschlag
  • Sonnenscheindauer

 Höhe:     m über NN
Luftd.:   auf Meereshöhe reduzierter Luftdruck in hPa
TEMP.:   Lufttemperatur in Grad Celsius
T-MIN:   Minimumtemperatur der Luft in 2m Höhe in Grad Celsius, von 18 UTC Vortag bis 06 UTC heute
T-MAX:  Maximumtemperatur der Luft in 2m Höhe in Grad Celsius, von 18 UTC Vortag bis 06 UTC heute
RR1:     Niederschlagsmenge, einstündig, mm ist gleich Liter pro
RR12:   Niederschlagsmenge, 12 stündig, 18 UTC Vortag bis 06 UTC heute in mm ist gleich Liter pro
SSS:     Gesamtschneehöhe
DD:      Windrichtung
FF:       Windgeschwindigkeit letztes 10-Minutenmittel in km/h
FX:       höchste Windspitze während der letzten Stunde in km/h
---:      Wert nicht vorhanden

 

2009-2019

Unwetterwarnungen

 

  Radarbild           

aktueller Radarfilm Deutschland

  Europa-Meteoalarm